Terminal Aerodrome Forecast
Issued by NWS Charleston, WV

Current Version | Previous Version | Text Only | Print | Product List | Glossary Off
Versions: 1 2 3 4 5 6 7 8 9 10 11 12 13 14 15 16 17 18 19 20 21 22 23 24

000
FTUS41 KRLX 241100
TAFEKN
TAF
KEKN 241124Z 2412/2512 VRB03KT P6SM SCT030
     FM241800 13005KT P6SM SCT030
     FM250400 13004KT 5SM BR SKC
     FM250800 14003KT 3/4SM BR BKN002=

USA.gov is the U.S. government's official web portal to all federal, state and local government web resources and services.